sensor_id;sensor_type;location;lat;lon;timestamp;pressure;altitude;pressure_sealevel;temperature;humidity
57048;BME280;42934;54.294;18.598;2023-03-24T00:00:19;99801.34;;;8.11;90.29
57048;BME280;42934;54.294;18.598;2023-03-24T00:03:11;99813.84;;;8.26;89.82
57048;BME280;42934;54.294;18.598;2023-03-24T00:05:40;99819.88;;;8.28;89.95
57048;BME280;42934;54.294;18.598;2023-03-24T00:08:11;99816.16;;;8.35;88.74
57048;BME280;42934;54.294;18.598;2023-03-24T00:10:40;99824.59;;;8.18;88.93
57048;BME280;42934;54.294;18.598;2023-03-24T00:13:14;99817.03;;;8.11;89.60
57048;BME280;42934;54.294;18.598;2023-03-24T00:15:45;99824.16;;;8.31;88.55
57048;BME280;42934;54.294;18.598;2023-03-24T00:18:16;99821.53;;;8.31;87.85
57048;BME280;42934;54.294;18.598;2023-03-24T00:20:45;99817.38;;;8.25;87.63
57048;BME280;42934;54.294;18.598;2023-03-24T00:23:15;99819.03;;;8.28;87.82
57048;BME280;42934;54.294;18.598;2023-03-24T00:25:44;99812.16;;;8.25;87.32
57048;BME280;42934;54.294;18.598;2023-03-24T00:28:16;99815.03;;;8.17;87.46
57048;BME280;42934;54.294;18.598;2023-03-24T00:30:47;99803.09;;;8.10;87.20
57048;BME280;42934;54.294;18.598;2023-03-24T00:33:20;99808.47;;;8.06;86.90
57048;BME280;42934;54.294;18.598;2023-03-24T00:35:51;99807.94;;;7.97;87.02
57048;BME280;42934;54.294;18.598;2023-03-24T00:38:21;99801.66;;;8.02;87.03
57048;BME280;42934;54.294;18.598;2023-03-24T00:40:51;99803.69;;;7.93;87.19
57048;BME280;42934;54.294;18.598;2023-03-24T00:43:20;99801.03;;;7.95;87.13
57048;BME280;42934;54.294;18.598;2023-03-24T00:45:57;99805.97;;;8.03;87.45
57048;BME280;42934;54.294;18.598;2023-03-24T00:48:29;99799.78;;;8.05;87.24
57048;BME280;42934;54.294;18.598;2023-03-24T00:51:00;99793.13;;;7.96;88.05
57048;BME280;42934;54.294;18.598;2023-03-24T00:53:31;99797.41;;;7.99;87.06
57048;BME280;42934;54.294;18.598;2023-03-24T00:56:02;99800.94;;;7.98;86.91
57048;BME280;42934;54.294;18.598;2023-03-24T00:58:32;99803.72;;;7.68;89.37
57048;BME280;42934;54.294;18.598;2023-03-24T01:01:03;99803.28;;;7.81;89.39
57048;BME280;42934;54.294;18.598;2023-03-24T01:03:34;99798.97;;;7.80;89.28
57048;BME280;42934;54.294;18.598;2023-03-24T01:06:10;99799.44;;;7.66;91.52
57048;BME280;42934;54.294;18.598;2023-03-24T01:08:39;99800.00;;;7.49;91.97
57048;BME280;42934;54.294;18.598;2023-03-24T01:11:09;99785.84;;;7.56;92.16
57048;BME280;42934;54.294;18.598;2023-03-24T01:13:40;99790.06;;;7.85;90.39
57048;BME280;42934;54.294;18.598;2023-03-24T01:16:10;99791.75;;;7.86;90.09
57048;BME280;42934;54.294;18.598;2023-03-24T01:18:40;99788.81;;;7.70;91.47
57048;BME280;42934;54.294;18.598;2023-03-24T01:21:11;99793.03;;;7.74;90.75
57048;BME280;42934;54.294;18.598;2023-03-24T01:23:41;99781.97;;;7.68;91.28
57048;BME280;42934;54.294;18.598;2023-03-24T01:26:10;99800.72;;;7.54;92.64
57048;BME280;42934;54.294;18.598;2023-03-24T01:28:40;99792.97;;;7.51;92.50
57048;BME280;42934;54.294;18.598;2023-03-24T01:31:12;99795.28;;;7.60;92.62
57048;BME280;42934;54.294;18.598;2023-03-24T01:33:42;99789.72;;;7.69;92.27
57048;BME280;42934;54.294;18.598;2023-03-24T01:36:11;99789.38;;;7.80;90.54
57048;BME280;42934;54.294;18.598;2023-03-24T01:38:41;99793.84;;;7.77;90.72
57048;BME280;42934;54.294;18.598;2023-03-24T01:41:10;99784.88;;;7.84;90.30
57048;BME280;42934;54.294;18.598;2023-03-24T01:43:40;99783.16;;;7.58;92.27
57048;BME280;42934;54.294;18.598;2023-03-24T01:46:16;99783.16;;;7.58;92.52
57048;BME280;42934;54.294;18.598;2023-03-24T01:48:50;99787.34;;;7.63;92.51
57048;BME280;42934;54.294;18.598;2023-03-24T01:51:23;99785.03;;;7.79;91.36
57048;BME280;42934;54.294;18.598;2023-03-24T01:53:57;99782.75;;;7.70;92.05
57048;BME280;42934;54.294;18.598;2023-03-24T01:56:31;99751.81;;;7.33;92.27
57048;BME280;42934;54.294;18.598;2023-03-24T01:59:06;99780.19;;;7.68;92.28
57048;BME280;42934;54.294;18.598;2023-03-24T02:01:47;99778.00;;;7.81;90.38
57048;BME280;42934;54.294;18.598;2023-03-24T02:04:40;99780.91;;;7.73;91.13
57048;BME280;42934;54.294;18.598;2023-03-24T02:07:15;99773.69;;;7.80;90.33
57048;BME280;42934;54.294;18.598;2023-03-24T02:09:47;99770.16;;;7.81;90.14
57048;BME280;42934;54.294;18.598;2023-03-24T02:12:16;99783.25;;;7.56;92.01
57048;BME280;42934;54.294;18.598;2023-03-24T02:14:46;99772.28;;;7.45;93.31
57048;BME280;42934;54.294;18.598;2023-03-24T02:17:53;99786.41;;;7.39;93.38
57048;BME280;42934;54.294;18.598;2023-03-24T02:27:01;99801.66;;;7.26;94.18
57048;BME280;42934;54.294;18.598;2023-03-24T02:33:29;99785.06;;;7.27;94.68
57048;BME280;42934;54.294;18.598;2023-03-24T02:42:22;99772.41;;;7.15;94.86
57048;BME280;42934;54.294;18.598;2023-03-24T02:45:04;99776.09;;;7.35;93.93
57048;BME280;42934;54.294;18.598;2023-03-24T02:47:42;99769.44;;;7.26;94.02
57048;BME280;42934;54.294;18.598;2023-03-24T02:50:21;99763.03;;;7.35;94.53
57048;BME280;42934;54.294;18.598;2023-03-24T02:53:00;99765.44;;;7.41;93.74
57048;BME280;42934;54.294;18.598;2023-03-24T02:55:41;99770.56;;;7.44;93.20
57048;BME280;42934;54.294;18.598;2023-03-24T02:58:17;99765.69;;;7.60;92.50
57048;BME280;42934;54.294;18.598;2023-03-24T03:01:01;99766.69;;;7.56;92.81
57048;BME280;42934;54.294;18.598;2023-03-24T03:04:04;99756.41;;;7.51;92.90
57048;BME280;42934;54.294;18.598;2023-03-24T03:06:38;99754.91;;;7.69;91.75
57048;BME280;42934;54.294;18.598;2023-03-24T03:09:13;99749.81;;;7.66;91.42
57048;BME280;42934;54.294;18.598;2023-03-24T03:11:48;99757.69;;;7.64;92.01
57048;BME280;42934;54.294;18.598;2023-03-24T03:14:21;99753.59;;;7.57;91.98
57048;BME280;42934;54.294;18.598;2023-03-24T03:16:55;99750.88;;;7.60;92.75
57048;BME280;42934;54.294;18.598;2023-03-24T03:19:32;99743.03;;;7.60;92.57
57048;BME280;42934;54.294;18.598;2023-03-24T03:22:04;99741.56;;;7.53;93.15
57048;BME280;42934;54.294;18.598;2023-03-24T03:24:39;99737.94;;;7.56;93.04
57048;BME280;42934;54.294;18.598;2023-03-24T03:27:13;99733.84;;;7.48;92.75
57048;BME280;42934;54.294;18.598;2023-03-24T03:29:48;99747.66;;;7.52;93.38
57048;BME280;42934;54.294;18.598;2023-03-24T03:32:24;99747.88;;;7.46;93.58
57048;BME280;42934;54.294;18.598;2023-03-24T03:34:58;99745.13;;;7.50;93.76
57048;BME280;42934;54.294;18.598;2023-03-24T03:37:35;99735.94;;;7.64;92.84
57048;BME280;42934;54.294;18.598;2023-03-24T03:40:18;99734.22;;;7.63;93.11
57048;BME280;42934;54.294;18.598;2023-03-24T03:42:55;99725.44;;;7.65;92.76
57048;BME280;42934;54.294;18.598;2023-03-24T03:45:25;99726.31;;;7.64;92.71
57048;BME280;42934;54.294;18.598;2023-03-24T03:47:55;99727.13;;;7.66;92.96
57048;BME280;42934;54.294;18.598;2023-03-24T03:50:24;99729.94;;;7.62;93.52
57048;BME280;42934;54.294;18.598;2023-03-24T03:53:01;99736.50;;;7.72;93.09
57048;BME280;42934;54.294;18.598;2023-03-24T03:55:31;99735.31;;;7.57;94.01
57048;BME280;42934;54.294;18.598;2023-03-24T03:58:05;99731.84;;;7.57;94.89
57048;BME280;42934;54.294;18.598;2023-03-24T04:00:39;99732.72;;;7.56;94.87
57048;BME280;42934;54.294;18.598;2023-03-24T04:04:09;99733.69;;;7.28;97.08
57048;BME280;42934;54.294;18.598;2023-03-24T04:07:14;99722.41;;;7.27;97.53
57048;BME280;42934;54.294;18.598;2023-03-24T04:10:10;99711.59;;;7.38;96.82
57048;BME280;42934;54.294;18.598;2023-03-24T04:13:03;99702.47;;;7.50;96.71
57048;BME280;42934;54.294;18.598;2023-03-24T04:16:10;99702.28;;;7.55;96.11
57048;BME280;42934;54.294;18.598;2023-03-24T04:19:15;99693.50;;;7.57;95.70
57048;BME280;42934;54.294;18.598;2023-03-24T04:22:01;99692.66;;;7.57;96.50
57048;BME280;42934;54.294;18.598;2023-03-24T04:24:44;99688.06;;;7.63;95.90
57048;BME280;42934;54.294;18.598;2023-03-24T04:27:24;99680.19;;;7.65;95.15
57048;BME280;42934;54.294;18.598;2023-03-24T04:30:13;99677.22;;;7.74;94.46
57048;BME280;42934;54.294;18.598;2023-03-24T04:32:48;99680.84;;;7.70;94.66
57048;BME280;42934;54.294;18.598;2023-03-24T04:35:28;99673.28;;;7.62;94.73
57048;BME280;42934;54.294;18.598;2023-03-24T04:38:25;99676.75;;;7.38;96.38
57048;BME280;42934;54.294;18.598;2023-03-24T04:41:19;99667.13;;;7.40;97.75
57048;BME280;42934;54.294;18.598;2023-03-24T04:44:04;99675.44;;;7.51;96.88
57048;BME280;42934;54.294;18.598;2023-03-24T04:46:43;99669.16;;;7.57;96.81
57048;BME280;42934;54.294;18.598;2023-03-24T04:49:19;99659.53;;;7.57;96.29
57048;BME280;42934;54.294;18.598;2023-03-24T04:51:53;99668.41;;;7.53;97.00
57048;BME280;42934;54.294;18.598;2023-03-24T04:54:28;99660.13;;;7.65;96.22
57048;BME280;42934;54.294;18.598;2023-03-24T04:57:04;99653.75;;;7.49;97.73
57048;BME280;42934;54.294;18.598;2023-03-24T04:59:40;99651.09;;;7.50;97.31
57048;BME280;42934;54.294;18.598;2023-03-24T05:02:10;99649.09;;;7.57;97.30
57048;BME280;42934;54.294;18.598;2023-03-24T05:04:51;99640.88;;;7.68;96.96
57048;BME280;42934;54.294;18.598;2023-03-24T05:07:26;99641.19;;;7.82;95.75
57048;BME280;42934;54.294;18.598;2023-03-24T05:09:59;99636.75;;;7.61;96.43
57048;BME280;42934;54.294;18.598;2023-03-24T05:12:30;99640.63;;;7.74;96.48
57048;BME280;42934;54.294;18.598;2023-03-24T05:15:18;99631.50;;;7.86;95.17
57048;BME280;42934;54.294;18.598;2023-03-24T05:17:52;99627.16;;;7.85;95.33
57048;BME280;42934;54.294;18.598;2023-03-24T05:20:26;99621.16;;;7.83;95.12
57048;BME280;42934;54.294;18.598;2023-03-24T05:23:06;99616.66;;;7.86;95.43
57048;BME280;42934;54.294;18.598;2023-03-24T05:25:36;99608.84;;;7.85;95.39
57048;BME280;42934;54.294;18.598;2023-03-24T05:28:05;99605.75;;;7.75;96.22
57048;BME280;42934;54.294;18.598;2023-03-24T05:30:35;99609.41;;;7.71;96.24
57048;BME280;42934;54.294;18.598;2023-03-24T05:33:17;99607.22;;;7.82;95.28
57048;BME280;42934;54.294;18.598;2023-03-24T05:35:49;99615.34;;;7.74;96.26
57048;BME280;42934;54.294;18.598;2023-03-24T05:38:18;99607.69;;;7.70;96.41
57048;BME280;42934;54.294;18.598;2023-03-24T05:40:56;99603.13;;;7.75;95.92
57048;BME280;42934;54.294;18.598;2023-03-24T05:43:31;99608.31;;;7.77;96.34
57048;BME280;42934;54.294;18.598;2023-03-24T05:46:09;99604.50;;;7.85;96.25
57048;BME280;42934;54.294;18.598;2023-03-24T05:48:39;99593.00;;;7.89;95.68
57048;BME280;42934;54.294;18.598;2023-03-24T05:51:18;99585.66;;;7.99;95.63
57048;BME280;42934;54.294;18.598;2023-03-24T05:53:57;99597.41;;;7.89;95.26
57048;BME280;42934;54.294;18.598;2023-03-24T05:56:34;99589.06;;;8.01;94.64
57048;BME280;42934;54.294;18.598;2023-03-24T05:59:16;99591.44;;;8.07;94.61
57048;BME280;42934;54.294;18.598;2023-03-24T06:01:58;99585.06;;;7.92;95.39
57048;BME280;42934;54.294;18.598;2023-03-24T06:04:48;99579.59;;;7.99;94.90
57048;BME280;42934;54.294;18.598;2023-03-24T06:07:24;99584.97;;;7.94;95.54
57048;BME280;42934;54.294;18.598;2023-03-24T06:09:56;99570.91;;;7.98;95.46
57048;BME280;42934;54.294;18.598;2023-03-24T06:12:38;99573.44;;;8.00;95.54
57048;BME280;42934;54.294;18.598;2023-03-24T06:15:09;99571.75;;;7.99;95.95
57048;BME280;42934;54.294;18.598;2023-03-24T06:17:39;99573.63;;;7.95;95.80
57048;BME280;42934;54.294;18.598;2023-03-24T06:20:20;99570.09;;;7.96;95.85
57048;BME280;42934;54.294;18.598;2023-03-24T06:23:03;99565.78;;;7.95;96.73
57048;BME280;42934;54.294;18.598;2023-03-24T06:25:51;99571.69;;;8.00;96.15
57048;BME280;42934;54.294;18.598;2023-03-24T06:28:24;99564.81;;;7.97;96.35
57048;BME280;42934;54.294;18.598;2023-03-24T06:31:03;99556.75;;;8.04;96.40
57048;BME280;42934;54.294;18.598;2023-03-24T06:33:36;99559.47;;;8.01;96.15
57048;BME280;42934;54.294;18.598;2023-03-24T06:36:07;99554.88;;;8.06;96.30
57048;BME280;42934;54.294;18.598;2023-03-24T06:38:39;99563.28;;;8.14;96.10
57048;BME280;42934;54.294;18.598;2023-03-24T06:41:09;99559.78;;;8.15;95.83
57048;BME280;42934;54.294;18.598;2023-03-24T06:43:38;99546.31;;;8.24;95.19
57048;BME280;42934;54.294;18.598;2023-03-24T06:46:08;99540.31;;;8.22;95.46
57048;BME280;42934;54.294;18.598;2023-03-24T06:48:41;99536.97;;;8.18;95.49
57048;BME280;42934;54.294;18.598;2023-03-24T06:51:10;99527.72;;;8.10;96.37
57048;BME280;42934;54.294;18.598;2023-03-24T06:53:42;99521.94;;;8.02;96.90
57048;BME280;42934;54.294;18.598;2023-03-24T06:56:13;99513.47;;;8.17;96.51
57048;BME280;42934;54.294;18.598;2023-03-24T06:58:51;99511.41;;;8.25;96.59
57048;BME280;42934;54.294;18.598;2023-03-24T07:01:26;99500.34;;;8.18;96.94
57048;BME280;42934;54.294;18.598;2023-03-24T07:04:05;99497.50;;;8.25;97.38
57048;BME280;42934;54.294;18.598;2023-03-24T07:06:34;99492.94;;;8.30;96.64
57048;BME280;42934;54.294;18.598;2023-03-24T07:09:27;99496.31;;;8.32;97.06
57048;BME280;42934;54.294;18.598;2023-03-24T07:11:57;99491.63;;;8.40;96.88
57048;BME280;42934;54.294;18.598;2023-03-24T07:14:27;99494.97;;;8.44;96.11
57048;BME280;42934;54.294;18.598;2023-03-24T07:16:57;99481.19;;;8.40;96.60
57048;BME280;42934;54.294;18.598;2023-03-24T07:19:41;99479.34;;;8.42;96.90
57048;BME280;42934;54.294;18.598;2023-03-24T07:22:31;99468.75;;;8.45;97.20
57048;BME280;42934;54.294;18.598;2023-03-24T07:25:41;99470.19;;;8.52;97.05
57048;BME280;42934;54.294;18.598;2023-03-24T07:28:20;99459.66;;;8.54;97.40
57048;BME280;42934;54.294;18.598;2023-03-24T07:30:49;99455.16;;;8.57;97.33
57048;BME280;42934;54.294;18.598;2023-03-24T07:33:22;99449.81;;;8.79;96.89
57048;BME280;42934;54.294;18.598;2023-03-24T07:35:54;99454.06;;;8.82;96.85
57048;BME280;42934;54.294;18.598;2023-03-24T07:38:25;99445.16;;;8.86;96.82
57048;BME280;42934;54.294;18.598;2023-03-24T07:41:02;99448.00;;;9.00;96.42
57048;BME280;42934;54.294;18.598;2023-03-24T07:43:34;99447.88;;;9.03;96.21
57048;BME280;42934;54.294;18.598;2023-03-24T07:46:18;99444.97;;;9.09;96.48
57048;BME280;42934;54.294;18.598;2023-03-24T07:48:47;99439.31;;;9.19;96.01
57048;BME280;42934;54.294;18.598;2023-03-24T07:51:18;99434.06;;;9.19;96.03
57048;BME280;42934;54.294;18.598;2023-03-24T07:53:56;99423.16;;;9.28;95.94
57048;BME280;42934;54.294;18.598;2023-03-24T07:56:33;99413.03;;;9.39;95.44
57048;BME280;42934;54.294;18.598;2023-03-24T07:59:03;99416.63;;;9.37;95.60
57048;BME280;42934;54.294;18.598;2023-03-24T08:02:10;99409.75;;;9.34;95.36
57048;BME280;42934;54.294;18.598;2023-03-24T08:05:05;99407.41;;;9.47;95.05
57048;BME280;42934;54.294;18.598;2023-03-24T08:07:50;99402.66;;;9.55;94.64
57048;BME280;42934;54.294;18.598;2023-03-24T08:10:22;99395.22;;;9.46;95.11
57048;BME280;42934;54.294;18.598;2023-03-24T08:12:54;99398.50;;;9.51;95.48
57048;BME280;42934;54.294;18.598;2023-03-24T08:15:24;99390.69;;;9.49;95.68
57048;BME280;42934;54.294;18.598;2023-03-24T08:17:54;99387.75;;;9.55;95.17
57048;BME280;42934;54.294;18.598;2023-03-24T08:20:24;99387.72;;;9.38;95.84
57048;BME280;42934;54.294;18.598;2023-03-24T08:22:54;99379.31;;;9.50;95.91
57048;BME280;42934;54.294;18.598;2023-03-24T08:25:24;99378.91;;;9.58;95.73
57048;BME280;42934;54.294;18.598;2023-03-24T08:27:56;99372.19;;;9.52;95.81
57048;BME280;42934;54.294;18.598;2023-03-24T08:30:26;99370.28;;;9.56;96.13
57048;BME280;42934;54.294;18.598;2023-03-24T08:32:58;99371.13;;;9.57;96.19
57048;BME280;42934;54.294;18.598;2023-03-24T08:35:29;99361.41;;;9.41;96.67
57048;BME280;42934;54.294;18.598;2023-03-24T08:38:00;99371.75;;;9.62;96.61
57048;BME280;42934;54.294;18.598;2023-03-24T08:40:34;99375.94;;;9.66;96.58
57048;BME280;42934;54.294;18.598;2023-03-24T08:43:07;99373.78;;;9.74;96.42
57048;BME280;42934;54.294;18.598;2023-03-24T08:45:37;99365.19;;;9.70;96.36
57048;BME280;42934;54.294;18.598;2023-03-24T08:48:08;99360.53;;;9.77;96.85
57048;BME280;42934;54.294;18.598;2023-03-24T08:50:39;99353.09;;;9.85;96.64
57048;BME280;42934;54.294;18.598;2023-03-24T08:53:11;99353.50;;;9.77;96.78
57048;BME280;42934;54.294;18.598;2023-03-24T08:55:40;99342.47;;;9.88;96.97
57048;BME280;42934;54.294;18.598;2023-03-24T08:58:15;99334.38;;;9.93;97.62
57048;BME280;42934;54.294;18.598;2023-03-24T09:00:46;99319.16;;;9.99;97.33
57048;BME280;42934;54.294;18.598;2023-03-24T09:03:17;99310.22;;;10.04;97.64
57048;BME280;42934;54.294;18.598;2023-03-24T09:05:50;99308.19;;;10.09;97.31
57048;BME280;42934;54.294;18.598;2023-03-24T09:08:24;99312.97;;;10.18;97.11
57048;BME280;42934;54.294;18.598;2023-03-24T09:10:54;99307.81;;;10.16;96.86
57048;BME280;42934;54.294;18.598;2023-03-24T09:13:25;99299.16;;;10.14;97.02
57048;BME280;42934;54.294;18.598;2023-03-24T09:15:58;99297.78;;;10.07;96.59
57048;BME280;42934;54.294;18.598;2023-03-24T09:18:29;99294.50;;;10.04;96.66
57048;BME280;42934;54.294;18.598;2023-03-24T09:20:58;99291.91;;;10.19;96.31
57048;BME280;42934;54.294;18.598;2023-03-24T09:23:28;99276.81;;;10.07;96.07
57048;BME280;42934;54.294;18.598;2023-03-24T09:25:58;99265.84;;;10.16;96.57
57048;BME280;42934;54.294;18.598;2023-03-24T09:28:30;99260.41;;;10.37;95.89
57048;BME280;42934;54.294;18.598;2023-03-24T09:31:01;99260.16;;;10.41;96.04
57048;BME280;42934;54.294;18.598;2023-03-24T09:33:31;99252.03;;;10.46;96.17
57048;BME280;42934;54.294;18.598;2023-03-24T09:36:02;99242.72;;;10.56;96.19
57048;BME280;42934;54.294;18.598;2023-03-24T09:38:32;99246.47;;;10.68;95.67
57048;BME280;42934;54.294;18.598;2023-03-24T09:41:03;99242.72;;;10.72;95.75
57048;BME280;42934;54.294;18.598;2023-03-24T09:43:38;99233.97;;;10.87;95.53
57048;BME280;42934;54.294;18.598;2023-03-24T09:46:13;99227.19;;;10.99;94.72
57048;BME280;42934;54.294;18.598;2023-03-24T09:48:48;99221.38;;;11.08;94.97
57048;BME280;42934;54.294;18.598;2023-03-24T09:51:22;99211.53;;;11.28;93.98
57048;BME280;42934;54.294;18.598;2023-03-24T09:53:59;99203.84;;;11.39;93.58
57048;BME280;42934;54.294;18.598;2023-03-24T09:56:34;99200.69;;;11.48;92.18
57048;BME280;42934;54.294;18.598;2023-03-24T09:59:11;99197.59;;;11.56;91.61
57048;BME280;42934;54.294;18.598;2023-03-24T10:01:41;99200.03;;;11.59;91.97
57048;BME280;42934;54.294;18.598;2023-03-24T10:04:14;99181.09;;;11.68;91.98
57048;BME280;42934;54.294;18.598;2023-03-24T10:06:45;99178.53;;;11.81;91.68
57048;BME280;42934;54.294;18.598;2023-03-24T10:09:22;99181.28;;;11.94;90.80
57048;BME280;42934;54.294;18.598;2023-03-24T10:12:01;99175.94;;;11.95;89.46
57048;BME280;42934;54.294;18.598;2023-03-24T10:14:46;99175.56;;;11.87;89.69
57048;BME280;42934;54.294;18.598;2023-03-24T10:17:27;99171.41;;;11.83;88.79
57048;BME280;42934;54.294;18.598;2023-03-24T10:20:03;99184.03;;;11.92;89.15
57048;BME280;42934;54.294;18.598;2023-03-24T10:22:38;99188.06;;;11.98;89.06
57048;BME280;42934;54.294;18.598;2023-03-24T10:25:16;99182.50;;;12.02;88.56
57048;BME280;42934;54.294;18.598;2023-03-24T10:27:47;99184.94;;;12.05;88.58
57048;BME280;42934;54.294;18.598;2023-03-24T10:30:24;99168.13;;;12.08;88.52
57048;BME280;42934;54.294;18.598;2023-03-24T10:32:54;99166.81;;;12.15;89.22
57048;BME280;42934;54.294;18.598;2023-03-24T10:35:28;99173.25;;;12.38;89.50
57048;BME280;42934;54.294;18.598;2023-03-24T10:38:01;99160.13;;;12.51;87.98
57048;BME280;42934;54.294;18.598;2023-03-24T10:40:32;99161.81;;;12.52;88.20
57048;BME280;42934;54.294;18.598;2023-03-24T10:43:04;99162.16;;;12.33;85.91
57048;BME280;42934;54.294;18.598;2023-03-24T10:45:40;99157.16;;;12.43;86.80
57048;BME280;42934;54.294;18.598;2023-03-24T10:48:12;99156.50;;;12.39;86.57
57048;BME280;42934;54.294;18.598;2023-03-24T10:50:43;99159.13;;;12.39;87.19
57048;BME280;42934;54.294;18.598;2023-03-24T10:53:18;99164.25;;;12.55;87.45
57048;BME280;42934;54.294;18.598;2023-03-24T10:55:48;99163.38;;;12.69;87.07
57048;BME280;42934;54.294;18.598;2023-03-24T10:58:24;99165.41;;;12.78;86.28
57048;BME280;42934;54.294;18.598;2023-03-24T11:00:58;99168.66;;;12.82;86.04
57048;BME280;42934;54.294;18.598;2023-03-24T11:03:30;99157.84;;;12.86;86.16
57048;BME280;42934;54.294;18.598;2023-03-24T11:06:01;99163.41;;;12.82;84.74
57048;BME280;42934;54.294;18.598;2023-03-24T11:08:35;99151.72;;;12.86;84.16
57048;BME280;42934;54.294;18.598;2023-03-24T11:11:28;99160.81;;;12.94;83.16
57048;BME280;42934;54.294;18.598;2023-03-24T11:13:59;99162.16;;;12.87;83.14
57048;BME280;42934;54.294;18.598;2023-03-24T11:16:34;99168.59;;;12.96;83.12
57048;BME280;42934;54.294;18.598;2023-03-24T11:19:06;99165.88;;;12.98;83.49
57048;BME280;42934;54.294;18.598;2023-03-24T11:21:51;99163.78;;;13.03;82.77
57048;BME280;42934;54.294;18.598;2023-03-24T11:24:20;99157.88;;;12.99;82.72
57048;BME280;42934;54.294;18.598;2023-03-24T11:26:55;99152.53;;;13.13;82.56
57048;BME280;42934;54.294;18.598;2023-03-24T11:29:28;99145.88;;;13.08;82.84
57048;BME280;42934;54.294;18.598;2023-03-24T11:32:01;99155.56;;;13.20;82.93
57048;BME280;42934;54.294;18.598;2023-03-24T11:34:33;99139.28;;;13.28;82.40
57048;BME280;42934;54.294;18.598;2023-03-24T11:37:10;99140.34;;;13.25;81.91
57048;BME280;42934;54.294;18.598;2023-03-24T11:39:40;99123.81;;;13.36;82.33
57048;BME280;42934;54.294;18.598;2023-03-24T11:42:15;99126.63;;;13.46;81.41
57048;BME280;42934;54.294;18.598;2023-03-24T11:44:47;99115.56;;;13.53;81.71
57048;BME280;42934;54.294;18.598;2023-03-24T11:47:23;99124.63;;;13.49;81.41
57048;BME280;42934;54.294;18.598;2023-03-24T11:50:02;99119.91;;;13.42;82.25
57048;BME280;42934;54.294;18.598;2023-03-24T11:52:45;99117.47;;;13.38;82.28
57048;BME280;42934;54.294;18.598;2023-03-24T11:55:20;99121.16;;;13.36;81.70
57048;BME280;42934;54.294;18.598;2023-03-24T11:57:55;99113.47;;;13.46;81.77
57048;BME280;42934;54.294;18.598;2023-03-24T12:00:29;99106.81;;;13.40;81.76
57048;BME280;42934;54.294;18.598;2023-03-24T12:06:26;99115.22;;;13.32;83.58
57048;BME280;42934;54.294;18.598;2023-03-24T12:09:08;99121.69;;;13.28;83.41
57048;BME280;42934;54.294;18.598;2023-03-24T12:11:50;99125.16;;;13.29;83.98
57048;BME280;42934;54.294;18.598;2023-03-24T12:14:28;99101.44;;;13.42;83.41
57048;BME280;42934;54.294;18.598;2023-03-24T12:17:05;99102.72;;;13.36;83.46
57048;BME280;42934;54.294;18.598;2023-03-24T12:19:53;99110.09;;;13.31;84.54
57048;BME280;42934;54.294;18.598;2023-03-24T12:22:39;99105.19;;;13.25;85.04
57048;BME280;42934;54.294;18.598;2023-03-24T12:25:27;99099.41;;;13.32;85.21
57048;BME280;42934;54.294;18.598;2023-03-24T12:28:11;99110.47;;;13.25;85.63
57048;BME280;42934;54.294;18.598;2023-03-24T12:30:57;99100.88;;;13.24;86.63
57048;BME280;42934;54.294;18.598;2023-03-24T12:33:37;99094.06;;;13.34;85.88
57048;BME280;42934;54.294;18.598;2023-03-24T12:36:38;99098.78;;;13.29;86.20
57048;BME280;42934;54.294;18.598;2023-03-24T12:39:17;99095.53;;;13.25;87.20
57048;BME280;42934;54.294;18.598;2023-03-24T12:42:05;99095.31;;;13.28;86.31
57048;BME280;42934;54.294;18.598;2023-03-24T12:47:58;99087.41;;;13.28;86.75
57048;BME280;42934;54.294;18.598;2023-03-24T12:50:40;99083.72;;;13.31;86.41
57048;BME280;42934;54.294;18.598;2023-03-24T12:53:31;99084.78;;;13.28;86.97
57048;BME280;42934;54.294;18.598;2023-03-24T12:56:08;99090.88;;;13.29;86.80
57048;BME280;42934;54.294;18.598;2023-03-24T12:58:43;99080.63;;;13.24;86.97
57048;BME280;42934;54.294;18.598;2023-03-24T13:01:18;99087.06;;;13.20;86.85
57048;BME280;42934;54.294;18.598;2023-03-24T13:03:54;99071.34;;;13.18;87.10
57048;BME280;42934;54.294;18.598;2023-03-24T13:06:28;99066.81;;;13.21;87.26
57048;BME280;42934;54.294;18.598;2023-03-24T13:09:08;99073.38;;;13.28;86.92
57048;BME280;42934;54.294;18.598;2023-03-24T13:11:48;99065.28;;;13.31;87.46
57048;BME280;42934;54.294;18.598;2023-03-24T13:14:24;99066.63;;;13.24;87.74
57048;BME280;42934;54.294;18.598;2023-03-24T13:16:59;99060.31;;;13.26;87.67
57048;BME280;42934;54.294;18.598;2023-03-24T13:19:33;99059.66;;;13.23;87.71
57048;BME280;42934;54.294;18.598;2023-03-24T13:22:08;99068.31;;;13.25;87.69
57048;BME280;42934;54.294;18.598;2023-03-24T13:24:42;99063.53;;;13.17;87.90
57048;BME280;42934;54.294;18.598;2023-03-24T13:27:18;99065.88;;;13.22;86.73
57048;BME280;42934;54.294;18.598;2023-03-24T13:30:22;99060.41;;;13.25;87.41
57048;BME280;42934;54.294;18.598;2023-03-24T13:33:01;99068.09;;;13.15;87.88
57048;BME280;42934;54.294;18.598;2023-03-24T13:35:59;99071.66;;;13.14;87.59
57048;BME280;42934;54.294;18.598;2023-03-24T13:38:36;99060.69;;;13.20;87.70
57048;BME280;42934;54.294;18.598;2023-03-24T13:41:11;99066.81;;;13.21;87.28
57048;BME280;42934;54.294;18.598;2023-03-24T13:43:47;99062.41;;;13.34;87.06
57048;BME280;42934;54.294;18.598;2023-03-24T13:46:18;99061.66;;;13.19;87.66
57048;BME280;42934;54.294;18.598;2023-03-24T13:48:51;99073.88;;;13.20;87.82
57048;BME280;42934;54.294;18.598;2023-03-24T13:51:25;99056.91;;;13.24;87.48
57048;BME280;42934;54.294;18.598;2023-03-24T13:53:57;99065.88;;;13.09;87.93
57048;BME280;42934;54.294;18.598;2023-03-24T13:56:32;99068.53;;;13.09;88.84
57048;BME280;42934;54.294;18.598;2023-03-24T13:59:27;99066.59;;;13.11;88.50
57048;BME280;42934;54.294;18.598;2023-03-24T14:02:44;99070.28;;;13.08;88.22
57048;BME280;42934;54.294;18.598;2023-03-24T14:05:39;99065.34;;;13.16;88.10
57048;BME280;42934;54.294;18.598;2023-03-24T14:08:13;99063.13;;;13.23;87.59